aviador You're here:

KEEN Decoded Metar

KEENE/DILLANT in NH, USA
Report Time2018-05-25 19:56:00
UTC Time2018-05-25 20:36:56
Flight Rules vfr VFR
Wind250° at 08 kt
W.Decomp.*RWY 32: 4.6 kt HW 6.6 kt LCW
RWY 20: 3.4 kt HW 7.3 kt RCW
W.Rank250° ranks 22
Current wind is above 250° avg. (6.3)
Visibility9999 m
Phenomena:N/A
Clouds:Overcast 120 Hf
Expected CloudBase > 9,600 ft AGL from Temp-Dew spread
Ceiling12,000 ft
Temp31°C (ISA +17)
Dew Point07°C (22% RH)
Heat Index29.2°C
AAT27.4°C
QNH1008 hPa
Density Alt2,736 ft
Elevation489 ft
Report Wrong Elevation
Raw Report
KEEN 251956Z AUTO 25008KT 10SM OVC120 31/07 A2978 RMK AO2 SLP099
T03060067=

Extra information for KEEN:More info

Metar Taf Metar & Taf Last 4 Metars F.Rules Stats Wind Profile Meteogram Temp Stats Airport Information Weather charts Add Link Nearby VenuesMetar ALERT Operation Metar Decoded Social comments

AIRNAV info for KEEN